sensor_id;sensor_type;location;lat;lon;timestamp;temperature;humidity
15115;DHT22;7658;51.456;7.622;2023-04-01T00:00:55;9.10;99.90
15115;DHT22;7658;51.456;7.622;2023-04-01T00:03:22;9.10;99.90
15115;DHT22;7658;51.456;7.622;2023-04-01T00:05:49;9.10;99.90
15115;DHT22;7658;51.456;7.622;2023-04-01T00:08:15;9.10;99.90
15115;DHT22;7658;51.456;7.622;2023-04-01T00:10:41;9.00;99.90
15115;DHT22;7658;51.456;7.622;2023-04-01T00:13:06;8.90;99.90
15115;DHT22;7658;51.456;7.622;2023-04-01T00:15:33;8.90;99.90
15115;DHT22;7658;51.456;7.622;2023-04-01T00:17:59;8.90;99.90
15115;DHT22;7658;51.456;7.622;2023-04-01T00:20:25;8.80;99.90
15115;DHT22;7658;51.456;7.622;2023-04-01T00:22:51;8.80;99.90
15115;DHT22;7658;51.456;7.622;2023-04-01T00:25:17;8.80;99.90
15115;DHT22;7658;51.456;7.622;2023-04-01T00:27:43;8.80;99.90
15115;DHT22;7658;51.456;7.622;2023-04-01T00:30:09;8.70;99.90
15115;DHT22;7658;51.456;7.622;2023-04-01T00:32:35;8.70;99.90
15115;DHT22;7658;51.456;7.622;2023-04-01T00:35:02;8.70;99.90
15115;DHT22;7658;51.456;7.622;2023-04-01T00:37:28;8.70;99.90
15115;DHT22;7658;51.456;7.622;2023-04-01T00:39:54;8.70;99.90
15115;DHT22;7658;51.456;7.622;2023-04-01T00:42:20;8.70;99.90
15115;DHT22;7658;51.456;7.622;2023-04-01T00:44:49;8.70;99.90
15115;DHT22;7658;51.456;7.622;2023-04-01T00:47:15;8.60;99.90
15115;DHT22;7658;51.456;7.622;2023-04-01T00:49:44;8.60;99.90
15115;DHT22;7658;51.456;7.622;2023-04-01T00:52:14;8.60;99.90
15115;DHT22;7658;51.456;7.622;2023-04-01T00:54:44;8.60;99.90
15115;DHT22;7658;51.456;7.622;2023-04-01T00:57:17;8.60;99.90
15115;DHT22;7658;51.456;7.622;2023-04-01T00:59:47;8.60;99.90
15115;DHT22;7658;51.456;7.622;2023-04-01T01:02:15;8.50;99.90
15115;DHT22;7658;51.456;7.622;2023-04-01T01:04:42;8.50;99.90
15115;DHT22;7658;51.456;7.622;2023-04-01T01:12:25;8.50;99.90
15115;DHT22;7658;51.456;7.622;2023-04-01T01:31:59;8.50;99.90
15115;DHT22;7658;51.456;7.622;2023-04-01T01:34:40;8.50;99.90
15115;DHT22;7658;51.456;7.622;2023-04-01T01:37:14;8.40;99.90
15115;DHT22;7658;51.456;7.622;2023-04-01T01:39:43;8.50;99.90
15115;DHT22;7658;51.456;7.622;2023-04-01T01:42:13;8.50;99.90
15115;DHT22;7658;51.456;7.622;2023-04-01T01:44:40;8.50;99.90
15115;DHT22;7658;51.456;7.622;2023-04-01T01:47:09;8.50;99.90
15115;DHT22;7658;51.456;7.622;2023-04-01T01:49:35;8.50;99.90
15115;DHT22;7658;51.456;7.622;2023-04-01T01:52:02;8.50;99.90
15115;DHT22;7658;51.456;7.622;2023-04-01T01:54:29;8.50;99.90
15115;DHT22;7658;51.456;7.622;2023-04-01T01:57:05;8.50;99.90
15115;DHT22;7658;51.456;7.622;2023-04-01T01:59:33;8.50;99.90
15115;DHT22;7658;51.456;7.622;2023-04-01T02:02:02;8.50;99.90
15115;DHT22;7658;51.456;7.622;2023-04-01T02:04:37;8.50;99.90
15115;DHT22;7658;51.456;7.622;2023-04-01T02:07:08;8.50;99.90
15115;DHT22;7658;51.456;7.622;2023-04-01T02:09:37;8.50;99.90
15115;DHT22;7658;51.456;7.622;2023-04-01T02:12:06;8.50;99.90
15115;DHT22;7658;51.456;7.622;2023-04-01T02:17:26;8.50;99.90
15115;DHT22;7658;51.456;7.622;2023-04-01T02:22:54;8.50;99.90
15115;DHT22;7658;51.456;7.622;2023-04-01T02:25:25;8.40;99.90
15115;DHT22;7658;51.456;7.622;2023-04-01T02:27:52;8.40;99.90
15115;DHT22;7658;51.456;7.622;2023-04-01T02:30:19;8.40;99.90
15115;DHT22;7658;51.456;7.622;2023-04-01T02:32:46;8.40;99.90
15115;DHT22;7658;51.456;7.622;2023-04-01T02:35:14;8.40;99.90
15115;DHT22;7658;51.456;7.622;2023-04-01T02:37:42;8.40;99.90
15115;DHT22;7658;51.456;7.622;2023-04-01T02:40:11;8.40;99.90
15115;DHT22;7658;51.456;7.622;2023-04-01T02:42:37;8.40;99.90
15115;DHT22;7658;51.456;7.622;2023-04-01T02:45:04;8.40;99.90
15115;DHT22;7658;51.456;7.622;2023-04-01T02:47:31;8.40;99.90
15115;DHT22;7658;51.456;7.622;2023-04-01T02:49:57;8.40;99.90
15115;DHT22;7658;51.456;7.622;2023-04-01T02:52:26;8.40;99.90
15115;DHT22;7658;51.456;7.622;2023-04-01T02:54:52;8.40;99.90
15115;DHT22;7658;51.456;7.622;2023-04-01T02:57:18;8.40;99.90
15115;DHT22;7658;51.456;7.622;2023-04-01T02:59:44;8.40;99.90
15115;DHT22;7658;51.456;7.622;2023-04-01T03:02:10;8.40;99.90
15115;DHT22;7658;51.456;7.622;2023-04-01T03:04:35;8.40;99.90
15115;DHT22;7658;51.456;7.622;2023-04-01T03:07:01;8.40;99.90
15115;DHT22;7658;51.456;7.622;2023-04-01T03:09:27;8.40;99.90
15115;DHT22;7658;51.456;7.622;2023-04-01T03:11:54;8.40;99.90
15115;DHT22;7658;51.456;7.622;2023-04-01T03:14:20;8.40;99.90
15115;DHT22;7658;51.456;7.622;2023-04-01T03:16:45;8.40;99.90
15115;DHT22;7658;51.456;7.622;2023-04-01T03:19:11;8.40;99.90
15115;DHT22;7658;51.456;7.622;2023-04-01T03:21:37;8.40;99.90
15115;DHT22;7658;51.456;7.622;2023-04-01T03:24:03;8.30;99.90
15115;DHT22;7658;51.456;7.622;2023-04-01T03:26:29;8.30;99.90
15115;DHT22;7658;51.456;7.622;2023-04-01T03:28:55;8.30;99.90
15115;DHT22;7658;51.456;7.622;2023-04-01T03:31:21;8.30;99.90
15115;DHT22;7658;51.456;7.622;2023-04-01T03:33:47;8.40;99.90
15115;DHT22;7658;51.456;7.622;2023-04-01T03:36:13;8.30;99.90
15115;DHT22;7658;51.456;7.622;2023-04-01T03:38:42;8.30;99.90
15115;DHT22;7658;51.456;7.622;2023-04-01T03:41:12;8.30;99.90
15115;DHT22;7658;51.456;7.622;2023-04-01T03:43:38;8.30;99.90
15115;DHT22;7658;51.456;7.622;2023-04-01T03:46:04;8.30;99.90
15115;DHT22;7658;51.456;7.622;2023-04-01T03:48:30;8.30;99.90
15115;DHT22;7658;51.456;7.622;2023-04-01T03:50:56;8.30;99.90
15115;DHT22;7658;51.456;7.622;2023-04-01T03:53:21;8.30;99.90
15115;DHT22;7658;51.456;7.622;2023-04-01T03:55:47;8.30;99.90
15115;DHT22;7658;51.456;7.622;2023-04-01T03:58:13;8.30;99.90
15115;DHT22;7658;51.456;7.622;2023-04-01T04:00:39;8.30;99.90
15115;DHT22;7658;51.456;7.622;2023-04-01T04:03:06;8.30;99.90
15115;DHT22;7658;51.456;7.622;2023-04-01T04:05:32;8.20;99.90
15115;DHT22;7658;51.456;7.622;2023-04-01T04:07:58;8.20;99.90
15115;DHT22;7658;51.456;7.622;2023-04-01T04:10:24;8.20;99.90
15115;DHT22;7658;51.456;7.622;2023-04-01T04:12:51;8.20;99.90
15115;DHT22;7658;51.456;7.622;2023-04-01T04:15:17;8.20;99.90
15115;DHT22;7658;51.456;7.622;2023-04-01T04:17:44;8.20;99.90
15115;DHT22;7658;51.456;7.622;2023-04-01T04:20:10;8.20;99.90
15115;DHT22;7658;51.456;7.622;2023-04-01T04:22:36;8.20;99.90
15115;DHT22;7658;51.456;7.622;2023-04-01T04:25:01;8.20;99.90
15115;DHT22;7658;51.456;7.622;2023-04-01T04:27:28;8.20;99.90
15115;DHT22;7658;51.456;7.622;2023-04-01T04:29:53;8.20;99.90
15115;DHT22;7658;51.456;7.622;2023-04-01T04:32:19;8.20;99.90
15115;DHT22;7658;51.456;7.622;2023-04-01T04:34:45;8.10;99.90
15115;DHT22;7658;51.456;7.622;2023-04-01T04:37:11;8.20;99.90
15115;DHT22;7658;51.456;7.622;2023-04-01T04:39:37;8.20;99.90
15115;DHT22;7658;51.456;7.622;2023-04-01T04:42:02;8.10;99.90
15115;DHT22;7658;51.456;7.622;2023-04-01T04:44:28;8.20;99.90
15115;DHT22;7658;51.456;7.622;2023-04-01T04:46:54;8.20;99.90
15115;DHT22;7658;51.456;7.622;2023-04-01T04:49:20;8.20;99.90
15115;DHT22;7658;51.456;7.622;2023-04-01T04:51:45;8.20;99.90
15115;DHT22;7658;51.456;7.622;2023-04-01T04:54:11;8.20;99.90
15115;DHT22;7658;51.456;7.622;2023-04-01T04:56:37;8.20;99.90
15115;DHT22;7658;51.456;7.622;2023-04-01T04:59:03;8.20;99.90
15115;DHT22;7658;51.456;7.622;2023-04-01T05:01:28;8.20;99.90
15115;DHT22;7658;51.456;7.622;2023-04-01T05:03:54;8.20;99.90
15115;DHT22;7658;51.456;7.622;2023-04-01T05:06:20;8.20;99.90
15115;DHT22;7658;51.456;7.622;2023-04-01T05:08:46;8.20;99.90
15115;DHT22;7658;51.456;7.622;2023-04-01T05:11:16;8.20;99.90
15115;DHT22;7658;51.456;7.622;2023-04-01T05:13:42;8.20;99.90
15115;DHT22;7658;51.456;7.622;2023-04-01T05:16:16;8.20;99.90
15115;DHT22;7658;51.456;7.622;2023-04-01T05:18:42;8.20;99.90
15115;DHT22;7658;51.456;7.622;2023-04-01T05:21:10;8.20;99.90
15115;DHT22;7658;51.456;7.622;2023-04-01T05:23:36;8.20;99.90
15115;DHT22;7658;51.456;7.622;2023-04-01T05:26:13;8.20;99.90
15115;DHT22;7658;51.456;7.622;2023-04-01T05:28:39;8.20;99.90
15115;DHT22;7658;51.456;7.622;2023-04-01T05:31:06;8.20;99.90
15115;DHT22;7658;51.456;7.622;2023-04-01T05:33:33;8.20;99.90
15115;DHT22;7658;51.456;7.622;2023-04-01T05:36:13;8.20;99.90
15115;DHT22;7658;51.456;7.622;2023-04-01T05:38:39;8.20;99.90
15115;DHT22;7658;51.456;7.622;2023-04-01T05:41:05;8.20;99.90
15115;DHT22;7658;51.456;7.622;2023-04-01T05:43:32;8.20;99.90
15115;DHT22;7658;51.456;7.622;2023-04-01T05:46:00;8.20;99.90
15115;DHT22;7658;51.456;7.622;2023-04-01T05:48:26;8.20;99.90
15115;DHT22;7658;51.456;7.622;2023-04-01T05:50:52;8.30;99.90
15115;DHT22;7658;51.456;7.622;2023-04-01T05:53:17;8.30;99.90
15115;DHT22;7658;51.456;7.622;2023-04-01T05:55:43;8.30;99.90
15115;DHT22;7658;51.456;7.622;2023-04-01T05:58:09;8.30;99.90
15115;DHT22;7658;51.456;7.622;2023-04-01T06:00:35;8.30;99.90
15115;DHT22;7658;51.456;7.622;2023-04-01T06:03:00;8.30;99.90
15115;DHT22;7658;51.456;7.622;2023-04-01T06:05:35;8.30;99.90
15115;DHT22;7658;51.456;7.622;2023-04-01T06:08:09;8.40;99.90
15115;DHT22;7658;51.456;7.622;2023-04-01T06:10:49;8.40;99.90
15115;DHT22;7658;51.456;7.622;2023-04-01T06:16:11;8.40;99.90
15115;DHT22;7658;51.456;7.622;2023-04-01T06:27:10;8.50;99.90
15115;DHT22;7658;51.456;7.622;2023-04-01T06:32:58;8.50;99.90
15115;DHT22;7658;51.456;7.622;2023-04-01T06:38:30;8.50;99.90
15115;DHT22;7658;51.456;7.622;2023-04-01T06:54:40;8.60;99.90
15115;DHT22;7658;51.456;7.622;2023-04-01T06:57:32;8.60;99.90
15115;DHT22;7658;51.456;7.622;2023-04-01T07:00:02;8.60;99.90
15115;DHT22;7658;51.456;7.622;2023-04-01T07:02:41;8.60;99.90
15115;DHT22;7658;51.456;7.622;2023-04-01T07:05:11;8.70;99.90
15115;DHT22;7658;51.456;7.622;2023-04-01T07:07:44;8.70;99.90
15115;DHT22;7658;51.456;7.622;2023-04-01T07:10:31;8.80;99.90
15115;DHT22;7658;51.456;7.622;2023-04-01T07:13:05;8.80;99.90
15115;DHT22;7658;51.456;7.622;2023-04-01T07:15:41;8.80;99.90
15115;DHT22;7658;51.456;7.622;2023-04-01T07:18:47;8.80;99.90
15115;DHT22;7658;51.456;7.622;2023-04-01T07:21:26;8.80;99.90
15115;DHT22;7658;51.456;7.622;2023-04-01T07:23:58;8.80;99.90
15115;DHT22;7658;51.456;7.622;2023-04-01T07:26:26;8.80;99.90
15115;DHT22;7658;51.456;7.622;2023-04-01T07:28:53;8.90;99.90
15115;DHT22;7658;51.456;7.622;2023-04-01T07:39:16;8.90;99.90
15115;DHT22;7658;51.456;7.622;2023-04-01T07:49:34;8.90;99.90
15115;DHT22;7658;51.456;7.622;2023-04-01T07:52:06;9.00;99.90
15115;DHT22;7658;51.456;7.622;2023-04-01T07:54:53;8.90;99.90
15115;DHT22;7658;51.456;7.622;2023-04-01T07:57:27;8.90;99.90
15115;DHT22;7658;51.456;7.622;2023-04-01T08:00:22;8.90;99.90
15115;DHT22;7658;51.456;7.622;2023-04-01T08:05:28;8.90;99.90
15115;DHT22;7658;51.456;7.622;2023-04-01T08:17:01;9.00;99.90
15115;DHT22;7658;51.456;7.622;2023-04-01T08:22:43;9.00;99.90
15115;DHT22;7658;51.456;7.622;2023-04-01T08:25:18;9.00;99.90
15115;DHT22;7658;51.456;7.622;2023-04-01T08:27:51;9.10;99.90
15115;DHT22;7658;51.456;7.622;2023-04-01T08:30:28;9.00;99.90
15115;DHT22;7658;51.456;7.622;2023-04-01T08:32:57;9.00;99.90
15115;DHT22;7658;51.456;7.622;2023-04-01T08:38:09;9.00;99.90
15115;DHT22;7658;51.456;7.622;2023-04-01T08:40:55;9.10;99.90
15115;DHT22;7658;51.456;7.622;2023-04-01T08:46:28;9.10;99.90
15115;DHT22;7658;51.456;7.622;2023-04-01T08:54:49;9.20;99.90
15115;DHT22;7658;51.456;7.622;2023-04-01T08:57:43;9.30;99.90
15115;DHT22;7658;51.456;7.622;2023-04-01T09:08:36;9.40;99.90
15115;DHT22;7658;51.456;7.622;2023-04-01T09:41:07;9.20;99.90
15115;DHT22;7658;51.456;7.622;2023-04-01T09:44:03;9.20;99.90
15115;DHT22;7658;51.456;7.622;2023-04-01T10:02:54;9.30;99.90
15115;DHT22;7658;51.456;7.622;2023-04-01T10:23:27;9.20;99.90
15115;DHT22;7658;51.456;7.622;2023-04-01T10:36:55;9.20;99.90
15115;DHT22;7658;51.456;7.622;2023-04-01T10:42:58;9.30;99.90
15115;DHT22;7658;51.456;7.622;2023-04-01T10:57:09;9.40;99.90
15115;DHT22;7658;51.456;7.622;2023-04-01T11:28:05;9.60;99.90
15115;DHT22;7658;51.456;7.622;2023-04-01T11:33:57;9.60;99.90
15115;DHT22;7658;51.456;7.622;2023-04-01T11:39:33;9.60;99.90
15115;DHT22;7658;51.456;7.622;2023-04-01T12:12:37;9.70;99.90
15115;DHT22;7658;51.456;7.622;2023-04-01T12:26:35;9.60;99.90
15115;DHT22;7658;51.456;7.622;2023-04-01T12:37:25;9.70;99.90
15115;DHT22;7658;51.456;7.622;2023-04-01T13:09:52;9.80;99.90
15115;DHT22;7658;51.456;7.622;2023-04-01T13:12:53;9.80;99.90
15115;DHT22;7658;51.456;7.622;2023-04-01T13:18:28;9.80;99.90
15115;DHT22;7658;51.456;7.622;2023-04-01T13:21:21;9.80;99.90
15115;DHT22;7658;51.456;7.622;2023-04-01T13:27:07;10.00;99.90
15115;DHT22;7658;51.456;7.622;2023-04-01T13:29:36;10.10;99.90
15115;DHT22;7658;51.456;7.622;2023-04-01T13:43:02;10.20;99.90
15115;DHT22;7658;51.456;7.622;2023-04-01T14:21:49;9.70;99.90
15115;DHT22;7658;51.456;7.622;2023-04-01T14:24:28;9.60;99.90
15115;DHT22;7658;51.456;7.622;2023-04-01T14:27:09;9.60;99.90
15115;DHT22;7658;51.456;7.622;2023-04-01T14:38:28;9.60;99.90
15115;DHT22;7658;51.456;7.622;2023-04-01T14:44:11;9.60;99.90
15115;DHT22;7658;51.456;7.622;2023-04-01T14:49:52;9.60;99.90
15115;DHT22;7658;51.456;7.622;2023-04-01T14:52:24;9.60;99.90
15115;DHT22;7658;51.456;7.622;2023-04-01T14:54:52;9.70;99.90
15115;DHT22;7658;51.456;7.622;2023-04-01T14:57:39;9.60;99.90
15115;DHT22;7658;51.456;7.622;2023-04-01T15:08:28;9.70;99.90
15115;DHT22;7658;51.456;7.622;2023-04-01T15:11:21;9.80;99.90
15115;DHT22;7658;51.456;7.622;2023-04-01T15:22:50;9.70;99.90
15115;DHT22;7658;51.456;7.622;2023-04-01T15:38:54;9.50;99.90
15115;DHT22;7658;51.456;7.622;2023-04-01T15:44:46;9.60;99.90
15115;DHT22;7658;51.456;7.622;2023-04-01T15:47:35;9.60;99.90
15115;DHT22;7658;51.456;7.622;2023-04-01T15:50:43;9.60;99.90
15115;DHT22;7658;51.456;7.622;2023-04-01T15:56:28;9.60;99.90
15115;DHT22;7658;51.456;7.622;2023-04-01T15:59:24;9.70;99.90
15115;DHT22;7658;51.456;7.622;2023-04-01T16:12:47;9.60;99.90
15115;DHT22;7658;51.456;7.622;2023-04-01T16:15:44;9.60;99.90
15115;DHT22;7658;51.456;7.622;2023-04-01T16:21:35;9.50;99.90
15115;DHT22;7658;51.456;7.622;2023-04-01T16:43:28;9.60;99.90
15115;DHT22;7658;51.456;7.622;2023-04-01T16:51:22;9.60;99.90
15115;DHT22;7658;51.456;7.622;2023-04-01T16:53:52;9.60;99.90
15115;DHT22;7658;51.456;7.622;2023-04-01T16:56:36;9.60;99.90
15115;DHT22;7658;51.456;7.622;2023-04-01T16:59:07;9.60;99.90
15115;DHT22;7658;51.456;7.622;2023-04-01T17:35:15;9.50;99.90
15115;DHT22;7658;51.456;7.622;2023-04-01T17:45:47;9.40;99.90
15115;DHT22;7658;51.456;7.622;2023-04-01T17:51:17;9.40;99.90
15115;DHT22;7658;51.456;7.622;2023-04-01T17:57:02;9.40;99.90
15115;DHT22;7658;51.456;7.622;2023-04-01T18:00:02;9.30;99.90
15115;DHT22;7658;51.456;7.622;2023-04-01T18:13:22;9.30;99.90
15115;DHT22;7658;51.456;7.622;2023-04-01T18:21:53;9.30;99.90
15115;DHT22;7658;51.456;7.622;2023-04-01T18:24:43;9.30;99.90
15115;DHT22;7658;51.456;7.622;2023-04-01T18:30:03;9.20;99.90
15115;DHT22;7658;51.456;7.622;2023-04-01T18:33:24;9.30;99.90
15115;DHT22;7658;51.456;7.622;2023-04-01T18:35:50;9.20;99.90
15115;DHT22;7658;51.456;7.622;2023-04-01T18:38:28;9.20;99.90
15115;DHT22;7658;51.456;7.622;2023-04-01T18:41:14;9.20;99.90
15115;DHT22;7658;51.456;7.622;2023-04-01T18:52:54;9.20;99.90
15115;DHT22;7658;51.456;7.622;2023-04-01T18:58:19;9.20;99.90
15115;DHT22;7658;51.456;7.622;2023-04-01T19:04:07;9.20;99.90
15115;DHT22;7658;51.456;7.622;2023-04-01T19:19:46;9.20;99.90
15115;DHT22;7658;51.456;7.622;2023-04-01T19:25:41;9.20;99.90
15115;DHT22;7658;51.456;7.622;2023-04-01T19:27:52;9.20;99.90
15115;DHT22;7658;51.456;7.622;2023-04-01T19:30:31;9.20;99.90
15115;DHT22;7658;51.456;7.622;2023-04-01T19:33:27;9.20;99.90
15115;DHT22;7658;51.456;7.622;2023-04-01T19:36:21;9.20;99.90
15115;DHT22;7658;51.456;7.622;2023-04-01T19:38:55;9.20;99.90
15115;DHT22;7658;51.456;7.622;2023-04-01T19:41:31;9.20;99.90
15115;DHT22;7658;51.456;7.622;2023-04-01T19:47:02;9.20;99.90
15115;DHT22;7658;51.456;7.622;2023-04-01T19:52:23;9.20;99.90
15115;DHT22;7658;51.456;7.622;2023-04-01T19:57:34;9.20;99.90
15115;DHT22;7658;51.456;7.622;2023-04-01T20:00:40;9.20;99.90
15115;DHT22;7658;51.456;7.622;2023-04-01T20:19:40;9.10;99.90
15115;DHT22;7658;51.456;7.622;2023-04-01T20:25:05;9.20;99.90
15115;DHT22;7658;51.456;7.622;2023-04-01T20:27:40;9.20;99.90
15115;DHT22;7658;51.456;7.622;2023-04-01T20:38:12;9.10;99.90
15115;DHT22;7658;51.456;7.622;2023-04-01T20:44:01;9.10;99.90
15115;DHT22;7658;51.456;7.622;2023-04-01T20:51:52;9.20;99.90
15115;DHT22;7658;51.456;7.622;2023-04-01T21:02:32;9.20;99.90
15115;DHT22;7658;51.456;7.622;2023-04-01T21:21:31;9.20;99.90
15115;DHT22;7658;51.456;7.622;2023-04-01T21:35:06;8.60;99.90
15115;DHT22;7658;51.456;7.622;2023-04-01T21:37:49;8.50;99.90
15115;DHT22;7658;51.456;7.622;2023-04-01T21:43:07;8.50;99.90
15115;DHT22;7658;51.456;7.622;2023-04-01T21:59:45;8.20;99.90
15115;DHT22;7658;51.456;7.622;2023-04-01T22:04:51;8.20;99.90
15115;DHT22;7658;51.456;7.622;2023-04-01T22:13:10;8.10;99.90
15115;DHT22;7658;51.456;7.622;2023-04-01T22:26:02;7.90;99.90
15115;DHT22;7658;51.456;7.622;2023-04-01T22:34:23;7.80;99.90
15115;DHT22;7658;51.456;7.622;2023-04-01T22:36:58;7.80;99.90
15115;DHT22;7658;51.456;7.622;2023-04-01T22:47:57;7.40;99.90
15115;DHT22;7658;51.456;7.622;2023-04-01T22:50:37;7.40;99.90
15115;DHT22;7658;51.456;7.622;2023-04-01T22:53:17;7.30;99.90
15115;DHT22;7658;51.456;7.622;2023-04-01T22:55:50;7.30;99.90
15115;DHT22;7658;51.456;7.622;2023-04-01T22:58:31;7.20;99.90
15115;DHT22;7658;51.456;7.622;2023-04-01T23:01:06;7.20;99.90
15115;DHT22;7658;51.456;7.622;2023-04-01T23:03:37;7.20;99.90
15115;DHT22;7658;51.456;7.622;2023-04-01T23:06:06;7.10;99.90
15115;DHT22;7658;51.456;7.622;2023-04-01T23:09:02;7.10;99.90
15115;DHT22;7658;51.456;7.622;2023-04-01T23:11:35;7.10;99.90
15115;DHT22;7658;51.456;7.622;2023-04-01T23:35:57;6.80;99.90
15115;DHT22;7658;51.456;7.622;2023-04-01T23:38:37;6.80;99.90
15115;DHT22;7658;51.456;7.622;2023-04-01T23:41:04;6.80;99.90
15115;DHT22;7658;51.456;7.622;2023-04-01T23:43:33;6.70;99.90
15115;DHT22;7658;51.456;7.622;2023-04-01T23:46:02;6.70;99.90
15115;DHT22;7658;51.456;7.622;2023-04-01T23:48:42;6.70;99.90
15115;DHT22;7658;51.456;7.622;2023-04-01T23:51:22;6.70;99.90
15115;DHT22;7658;51.456;7.622;2023-04-01T23:54:01;6.70;99.90
15115;DHT22;7658;51.456;7.622;2023-04-01T23:56:45;6.70;99.90
15115;DHT22;7658;51.456;7.622;2023-04-01T23:59:17;6.60;99.90
